Haskell Heights, South Carolina
Current Conditions -  °F | °C
As of 11:53 PM on Wednesday 22 Oct 2014 (Local Time) from KCUB Reporting Station
Clear Clear  
Wind Chill: 54°   Ceiling: Unl
Heat Index: 54°   Visibility: 10mi
Dew Point: 40°   Wind: 3mph
Humidity: 59%   Direction: 320°NW
Pressure: 30.12"   Gusts: NA
Location:  34.1179°N, 81.0612°W
Report Text: KCUB 230353Z AUTO 32003KT 10SM CLR 12/04 A3012 RMK AO2 SLP197 T01220044
Loading
Personal Weather Stations






























Interactive Weather Map
Tropical Storm Tracking
New forecast layout! Learn more

10-Day Weather Forecast

Advertisements
Track Severe Weather on mobile